createdAt,value
2019-05-09T00:03:57.816Z,100.00
2019-05-09T00:06:26.458Z,100.00
2019-05-09T00:08:55.121Z,100.00
2019-05-09T00:11:24.594Z,100.00
2019-05-09T00:13:54.186Z,100.00
2019-05-09T00:16:23.501Z,100.00
2019-05-09T00:18:54.036Z,100.00
2019-05-09T00:21:43.727Z,100.00
2019-05-09T00:24:13.901Z,100.00
2019-05-09T00:26:44.294Z,100.00
2019-05-09T00:29:33.505Z,100.00
2019-05-09T00:32:21.318Z,100.00
2019-05-09T00:35:09.122Z,100.00
2019-05-09T00:37:56.885Z,100.00
2019-05-09T00:41:05.351Z,100.00
2019-05-09T00:43:34.311Z,100.00
2019-05-09T00:48:59.242Z,100.00
2019-05-09T00:51:27.853Z,100.00
2019-05-09T00:53:56.509Z,100.00
2019-05-09T00:56:25.063Z,100.00
2019-05-09T00:58:53.867Z,100.00
2019-05-09T01:01:24.027Z,100.00
2019-05-09T01:03:53.509Z,100.00
2019-05-09T01:06:24.139Z,100.00
2019-05-09T01:08:53.959Z,100.00
2019-05-09T01:11:24.574Z,100.00
2019-05-09T01:16:48.934Z,100.00
2019-05-09T01:19:17.491Z,100.00
2019-05-09T01:21:46.127Z,100.00
2019-05-09T01:24:14.822Z,100.00
2019-05-09T01:26:43.680Z,100.00
2019-05-09T01:29:13.978Z,100.00
2019-05-09T01:31:43.548Z,100.00
2019-05-09T01:34:53.092Z,100.00
2019-05-09T01:40:16.201Z,100.00
2019-05-09T01:42:44.777Z,100.00
2019-05-09T01:45:14.210Z,100.00
2019-05-09T01:47:43.996Z,100.00
2019-05-09T01:50:14.011Z,100.00
2019-05-09T01:52:43.910Z,100.00
2019-05-09T01:55:14.307Z,100.00
2019-05-09T01:57:47.233Z,99.77
2019-05-09T02:00:14.506Z,99.58
2019-05-09T02:02:43.358Z,98.80
2019-05-09T02:05:53.126Z,98.87
2019-05-09T02:08:23.652Z,99.05
2019-05-09T02:10:54.240Z,99.13
2019-05-09T02:13:23.288Z,99.17
2019-05-09T02:16:11.102Z,98.29
2019-05-09T02:21:15.308Z,99.34
2019-05-09T02:23:43.989Z,98.43
2019-05-09T02:26:13.543Z,98.82
2019-05-09T02:28:43.409Z,98.75
2019-05-09T02:31:16.354Z,99.08
2019-05-09T02:33:45.417Z,99.23
2019-05-09T02:36:14.056Z,99.37
2019-05-09T02:38:42.676Z,99.45
2019-05-09T02:41:11.355Z,99.96
2019-05-09T02:43:40.004Z,100.00
2019-05-09T02:48:49.507Z,100.00
2019-05-09T02:51:18.662Z,100.00
2019-05-09T02:53:48.744Z,100.00
2019-05-09T02:56:19.176Z,100.00
2019-05-09T03:01:43.727Z,99.64
2019-05-09T03:04:12.362Z,99.21
2019-05-09T03:06:41.037Z,98.83
2019-05-09T03:09:09.724Z,98.14
2019-05-09T03:11:39.037Z,97.73
2019-05-09T03:14:09.405Z,98.25
2019-05-09T03:16:40.074Z,98.06
2019-05-09T03:19:09.555Z,97.99
2019-05-09T03:21:58.441Z,97.93
2019-05-09T03:24:28.802Z,98.17
2019-05-09T03:27:18.731Z,97.91
2019-05-09T03:35:21.671Z,99.50
2019-05-09T03:38:09.358Z,98.68
2019-05-09T03:41:17.866Z,98.52
2019-05-09T03:43:48.319Z,99.06
2019-05-09T03:46:38.274Z,98.99
2019-05-09T03:52:01.035Z,99.35
2019-05-09T03:54:29.717Z,99.01
2019-05-09T03:57:18.020Z,99.18
2019-05-09T03:59:48.135Z,99.76
2019-05-09T04:02:17.821Z,100.00
2019-05-09T04:04:47.642Z,100.00
2019-05-09T04:07:18.657Z,100.00
2019-05-09T04:09:48.211Z,100.00
2019-05-09T04:15:25.087Z,100.00
2019-05-09T04:17:53.687Z,100.00
2019-05-09T04:20:22.269Z,100.00
2019-05-09T04:22:50.864Z,100.00
2019-05-09T04:28:08.780Z,100.00
2019-05-09T04:30:37.393Z,100.00
2019-05-09T04:33:07.320Z,100.00
2019-05-09T04:35:38.263Z,100.00
2019-05-09T04:38:07.447Z,100.00
2019-05-09T04:40:44.596Z,100.00
2019-05-09T04:43:14.279Z,100.00
2019-05-09T04:48:47.602Z,99.85
2019-05-09T04:51:17.991Z,99.25
2019-05-09T04:56:57.237Z,98.16
2019-05-09T04:59:25.444Z,96.14
2019-05-09T05:04:29.421Z,96.35
2019-05-09T05:06:58.693Z,96.61
2019-05-09T05:09:28.461Z,96.82
2019-05-09T05:11:57.977Z,96.27
2019-05-09T05:17:17.973Z,97.27
2019-05-09T05:19:47.763Z,96.91
2019-05-09T05:27:34.329Z,96.15
2019-05-09T05:30:02.993Z,95.90
2019-05-09T05:32:50.741Z,95.69
2019-05-09T05:35:38.393Z,96.24
2019-05-09T05:38:08.552Z,95.84
2019-05-09T05:40:45.570Z,94.16
2019-05-09T05:43:08.800Z,92.04
2019-05-09T05:48:38.346Z,90.90
2019-05-09T05:51:08.163Z,89.76
2019-05-09T05:53:38.124Z,88.89
2019-05-09T05:56:08.632Z,89.92
2019-05-09T05:58:38.778Z,85.57
2019-05-09T06:01:08.193Z,84.61
2019-05-09T06:03:37.872Z,83.29
2019-05-09T06:06:08.589Z,81.70
2019-05-09T06:08:38.015Z,81.74
2019-05-09T06:11:11.756Z,81.22
2019-05-09T06:13:38.028Z,81.99
2019-05-09T06:16:08.733Z,82.31
2019-05-09T06:18:38.592Z,81.11
2019-05-09T06:21:08.833Z,81.18
2019-05-09T06:23:37.594Z,79.65
2019-05-09T06:26:10.005Z,79.74
2019-05-09T06:28:37.678Z,76.99
2019-05-09T06:31:07.649Z,80.50
2019-05-09T06:33:44.876Z,81.25
2019-05-09T06:36:08.032Z,77.81
2019-05-09T06:38:37.730Z,75.63
2019-05-09T06:41:08.830Z,77.00
2019-05-09T06:44:11.076Z,77.74
2019-05-09T06:51:52.068Z,72.16
2019-05-09T06:54:20.713Z,74.20
2019-05-09T06:56:49.393Z,73.19
2019-05-09T06:59:19.098Z,75.04
2019-05-09T07:12:43.181Z,73.40
2019-05-09T07:15:11.829Z,69.29
2019-05-09T07:17:40.308Z,72.21
2019-05-09T07:20:09.003Z,67.35
2019-05-09T07:25:47.846Z,60.69
2019-05-09T07:28:18.007Z,59.72
2019-05-09T07:31:07.719Z,59.49
2019-05-09T07:36:27.714Z,52.41
2019-05-09T07:38:58.061Z,47.58
2019-05-09T07:41:28.185Z,46.27
2019-05-09T07:43:58.323Z,44.94
2019-05-09T07:51:37.834Z,42.73
2019-05-09T07:54:21.158Z,42.75
2019-05-09T07:56:37.827Z,46.69
2019-05-09T07:59:07.804Z,46.64
2019-05-09T08:02:17.769Z,49.32
2019-05-09T08:04:48.882Z,53.70
2019-05-09T08:07:18.107Z,59.99
2019-05-09T08:09:47.565Z,60.15
2019-05-09T08:12:17.936Z,62.44
2019-05-09T08:15:06.615Z,66.00
2019-05-09T08:17:18.196Z,63.16
2019-05-09T08:19:48.567Z,62.54
2019-05-09T08:22:24.805Z,64.17
2019-05-09T08:24:49.066Z,63.89
2019-05-09T08:27:17.728Z,65.66
2019-05-09T08:29:47.883Z,64.92
2019-05-09T08:32:18.083Z,67.35
2019-05-09T08:34:48.233Z,67.64
2019-05-09T08:37:17.689Z,64.85
2019-05-09T08:39:48.483Z,66.12
2019-05-09T08:42:17.959Z,66.71
2019-05-09T08:44:48.263Z,65.52
2019-05-09T08:47:18.443Z,66.65
2019-05-09T08:50:08.002Z,67.63
2019-05-09T08:52:37.719Z,68.08
2019-05-09T08:55:08.523Z,65.66
2019-05-09T08:57:38.201Z,71.17
2019-05-09T09:00:48.412Z,72.16
2019-05-09T09:03:18.528Z,73.58
2019-05-09T09:05:48.583Z,73.69
2019-05-09T09:08:18.421Z,74.09
2019-05-09T09:10:48.937Z,77.61
2019-05-09T09:13:18.465Z,78.68
2019-05-09T09:16:05.666Z,81.33
2019-05-09T09:18:18.113Z,81.96
2019-05-09T09:20:48.527Z,83.72
2019-05-09T09:23:18.317Z,84.02
2019-05-09T09:25:48.553Z,84.67
2019-05-09T09:28:18.298Z,85.25
2019-05-09T09:30:48.547Z,84.47
2019-05-09T09:33:18.178Z,86.32
2019-05-09T09:35:48.937Z,84.34
2019-05-09T09:38:17.822Z,85.76
2019-05-09T09:40:47.920Z,85.70
2019-05-09T09:43:17.975Z,86.50
2019-05-09T09:45:48.039Z,87.54
2019-05-09T09:48:18.036Z,88.61
2019-05-09T09:50:51.298Z,88.91
2019-05-09T09:53:18.475Z,90.36
2019-05-09T09:55:48.171Z,91.10
2019-05-09T09:58:18.974Z,91.19
2019-05-09T10:01:28.761Z,90.95
2019-05-09T10:04:23.107Z,92.47
2019-05-09T10:07:27.935Z,92.42
2019-05-09T10:09:58.374Z,91.47
2019-05-09T10:12:28.556Z,91.05
2019-05-09T10:15:18.902Z,88.79
2019-05-09T10:18:07.486Z,90.84
2019-05-09T10:20:58.412Z,89.15
2019-05-09T10:23:26.367Z,88.88
2019-05-09T10:25:54.943Z,87.53
2019-05-09T10:28:23.731Z,87.88
2019-05-09T10:30:52.348Z,84.90
2019-05-09T10:33:20.997Z,82.82
2019-05-09T10:35:49.690Z,84.38
2019-05-09T10:38:18.644Z,82.55
2019-05-09T10:40:48.962Z,78.71
2019-05-09T10:46:16.348Z,80.30
2019-05-09T10:51:33.539Z,72.84
2019-05-09T10:54:02.156Z,71.66
2019-05-09T10:56:30.888Z,72.66
2019-05-09T10:58:59.462Z,72.73
2019-05-09T11:01:29.411Z,68.81
2019-05-09T11:03:59.131Z,73.77
2019-05-09T11:06:29.146Z,70.03
2019-05-09T11:08:59.146Z,66.52
2019-05-09T11:14:32.201Z,65.84
2019-05-09T11:16:54.279Z,70.14
2019-05-09T11:22:18.480Z,68.05
2019-05-09T11:24:50.973Z,69.11
2019-05-09T11:27:18.658Z,69.66
2019-05-09T11:29:49.809Z,72.71
2019-05-09T11:32:18.118Z,72.53
2019-05-09T11:34:48.613Z,70.78
2019-05-09T11:37:17.242Z,75.06
2019-05-09T11:39:48.041Z,76.51
2019-05-09T11:42:17.791Z,73.73
2019-05-09T11:44:46.555Z,76.63
2019-05-09T11:47:28.538Z,76.29
2019-05-09T11:49:48.019Z,78.10
2019-05-09T11:52:18.308Z,71.96
2019-05-09T11:54:48.237Z,71.73
2019-05-09T11:57:18.944Z,71.20
2019-05-09T11:59:48.018Z,70.05
2019-05-09T12:02:18.042Z,71.34
2019-05-09T12:04:48.707Z,74.55
2019-05-09T12:07:18.136Z,73.64
2019-05-09T12:09:48.923Z,74.80
2019-05-09T12:12:19.323Z,76.05
2019-05-09T12:14:48.404Z,75.25
2019-05-09T12:17:19.584Z,76.64
2019-05-09T12:19:48.912Z,76.51
2019-05-09T12:22:19.288Z,77.73
2019-05-09T12:24:48.953Z,78.06
2019-05-09T12:27:18.747Z,78.42
2019-05-09T12:29:48.420Z,81.44
2019-05-09T12:32:18.824Z,81.20
2019-05-09T12:34:48.806Z,80.39
2019-05-09T12:37:18.232Z,78.70
2019-05-09T12:39:48.198Z,80.34
2019-05-09T12:42:18.760Z,80.68
2019-05-09T12:44:49.555Z,80.38
2019-05-09T12:47:19.216Z,82.87
2019-05-09T12:49:49.393Z,85.33
2019-05-09T12:52:18.682Z,85.11
2019-05-09T12:54:48.530Z,86.70
2019-05-09T12:57:19.243Z,88.21
2019-05-09T12:59:52.205Z,86.85
2019-05-09T13:02:17.954Z,85.83
2019-05-09T13:04:47.671Z,86.02
2019-05-09T13:07:16.962Z,85.47
2019-05-09T13:09:52.208Z,83.53
2019-05-09T13:12:18.019Z,85.68
2019-05-09T13:14:48.448Z,84.81
2019-05-09T13:19:52.666Z,83.19
2019-05-09T13:22:21.292Z,82.18
2019-05-09T13:24:49.868Z,81.06
2019-05-09T13:27:19.100Z,81.61
2019-05-09T13:29:49.523Z,81.46
2019-05-09T13:32:19.317Z,82.53
2019-05-09T13:34:48.634Z,82.01
2019-05-09T13:37:19.021Z,83.14
2019-05-09T13:39:48.642Z,83.74
2019-05-09T13:42:19.569Z,84.61
2019-05-09T13:44:47.700Z,85.92
2019-05-09T13:47:17.872Z,83.75
2019-05-09T13:49:48.474Z,85.50
2019-05-09T13:52:17.977Z,85.44
2019-05-09T13:54:48.272Z,85.01
2019-05-09T13:57:18.942Z,83.85
2019-05-09T13:59:48.800Z,83.08
2019-05-09T14:02:19.086Z,84.57
2019-05-09T14:04:49.220Z,85.85
2019-05-09T14:07:19.341Z,84.56
2019-05-09T14:09:48.532Z,83.67
2019-05-09T14:12:18.553Z,84.87
2019-05-09T14:14:47.240Z,85.39
2019-05-09T14:17:18.711Z,86.07
2019-05-09T14:19:50.360Z,86.85
2019-05-09T14:22:17.955Z,86.18
2019-05-09T14:24:48.355Z,88.23
2019-05-09T14:27:18.683Z,89.69
2019-05-09T14:29:49.762Z,89.92
2019-05-09T14:32:17.991Z,92.34
2019-05-09T14:34:48.248Z,89.52
2019-05-09T14:37:17.998Z,91.57
2019-05-09T14:39:57.768Z,93.93
2019-05-09T14:42:18.793Z,93.66
2019-05-09T14:44:48.150Z,94.62
2019-05-09T14:47:17.653Z,95.18
2019-05-09T14:49:49.733Z,96.23
2019-05-09T14:52:17.598Z,96.59
2019-05-09T14:54:48.260Z,95.84
2019-05-09T14:57:17.546Z,95.70
2019-05-09T14:59:47.052Z,95.57
2019-05-09T15:02:17.934Z,95.01
2019-05-09T15:04:48.412Z,95.69
2019-05-09T15:07:18.651Z,94.65
2019-05-09T15:09:46.868Z,94.98
2019-05-09T15:12:15.513Z,95.22
2019-05-09T15:14:44.198Z,96.28
2019-05-09T15:17:12.853Z,96.82
2019-05-09T15:19:56.566Z,96.43
2019-05-09T15:24:50.993Z,96.68
2019-05-09T15:27:19.699Z,96.13
2019-05-09T15:29:48.711Z,95.60
2019-05-09T15:32:18.614Z,95.08
2019-05-09T15:34:47.296Z,93.13
2019-05-09T15:37:18.393Z,92.67
2019-05-09T15:39:48.400Z,92.15
2019-05-09T15:42:18.257Z,92.33
2019-05-09T15:44:47.725Z,90.97
2019-05-09T15:50:27.812Z,91.60
2019-05-09T15:52:57.929Z,93.27
2019-05-09T15:55:28.262Z,95.72
2019-05-09T15:57:57.752Z,96.31
2019-05-09T16:00:28.413Z,97.85
2019-05-09T16:02:58.970Z,97.12
2019-05-09T16:05:28.347Z,97.10
2019-05-09T16:07:58.574Z,97.44
2019-05-09T16:10:28.305Z,97.62
2019-05-09T16:12:57.828Z,97.79
2019-05-09T16:15:28.604Z,97.16
2019-05-09T16:17:56.846Z,98.48
2019-05-09T16:20:36.905Z,99.29
2019-05-09T16:22:57.235Z,98.52
2019-05-09T16:25:28.348Z,98.24
2019-05-09T16:27:58.683Z,97.93
2019-05-09T16:30:27.565Z,97.53
2019-05-09T16:32:58.626Z,96.42
2019-05-09T16:35:28.588Z,97.20
2019-05-09T16:38:06.070Z,96.38
2019-05-09T16:40:28.526Z,96.85
2019-05-09T16:42:58.098Z,96.43
2019-05-09T16:45:28.746Z,96.46
2019-05-09T16:47:57.906Z,96.72
2019-05-09T16:50:26.538Z,95.72
2019-05-09T16:52:58.256Z,95.46
2019-05-09T16:58:14.833Z,95.93
2019-05-09T17:01:02.819Z,94.92
2019-05-09T17:03:31.505Z,96.23
2019-05-09T17:06:00.014Z,96.08
2019-05-09T17:08:28.690Z,95.56
2019-05-09T17:10:58.674Z,95.00
2019-05-09T17:13:28.935Z,95.92
2019-05-09T17:15:58.113Z,95.89
2019-05-09T17:18:28.280Z,95.36
2019-05-09T17:26:21.889Z,93.89
2019-05-09T17:28:50.475Z,93.09
2019-05-09T17:31:19.229Z,91.83
2019-05-09T17:33:48.651Z,92.31
2019-05-09T17:36:18.385Z,91.72
2019-05-09T17:38:47.781Z,91.07
2019-05-09T17:41:17.841Z,91.68
2019-05-09T17:43:47.701Z,91.49
2019-05-09T17:46:18.921Z,91.38
2019-05-09T17:48:47.934Z,91.57
2019-05-09T17:51:31.654Z,90.14
2019-05-09T17:53:51.866Z,89.27
2019-05-09T17:56:17.968Z,90.11
2019-05-09T17:58:48.537Z,90.48
2019-05-09T18:01:17.983Z,90.91
2019-05-09T18:03:48.208Z,89.97
2019-05-09T18:06:19.132Z,89.77
2019-05-09T18:08:48.536Z,89.41
2019-05-09T18:11:18.513Z,90.08
2019-05-09T18:13:48.104Z,89.40
2019-05-09T18:16:18.981Z,90.22
2019-05-09T18:19:29.348Z,90.57
2019-05-09T18:21:58.166Z,91.12
2019-05-09T18:24:28.770Z,90.59
2019-05-09T18:26:58.269Z,91.00
2019-05-09T18:32:41.832Z,91.21
2019-05-09T18:35:50.243Z,91.88
2019-05-09T18:38:38.838Z,92.06
2019-05-09T18:41:10.195Z,91.63
2019-05-09T18:43:39.012Z,93.10
2019-05-09T18:46:08.380Z,93.76
2019-05-09T18:48:38.370Z,94.30
2019-05-09T18:51:08.497Z,94.61
2019-05-09T18:53:37.142Z,94.74
2019-05-09T18:56:05.784Z,94.94
2019-05-09T18:58:36.081Z,95.11
2019-05-09T19:01:24.165Z,95.54
2019-05-09T19:03:52.825Z,95.77
2019-05-09T19:06:21.461Z,97.32
2019-05-09T19:08:50.153Z,97.38
2019-05-09T19:11:18.790Z,97.63
2019-05-09T19:13:47.365Z,97.00
2019-05-09T19:16:35.169Z,98.08
2019-05-09T19:19:23.041Z,98.22
2019-05-09T19:24:26.955Z,98.82
2019-05-09T19:26:55.640Z,99.05
2019-05-09T19:29:24.202Z,99.30
2019-05-09T19:31:52.801Z,99.82
2019-05-09T19:34:21.552Z,99.88
2019-05-09T19:36:50.245Z,100.00
2019-05-09T19:39:18.946Z,100.00
2019-05-09T19:41:47.728Z,100.00
2019-05-09T19:44:16.428Z,100.00
2019-05-09T19:46:45.074Z,99.51
2019-05-09T19:49:13.752Z,98.95
2019-05-09T19:54:50.555Z,99.29
2019-05-09T19:57:19.202Z,98.86
2019-05-09T19:59:47.961Z,99.05
2019-05-09T20:02:16.591Z,99.02
2019-05-09T20:07:27.999Z,99.03
2019-05-09T20:10:15.839Z,99.02
2019-05-09T20:15:33.709Z,98.77
2019-05-09T20:18:02.370Z,98.85
2019-05-09T20:20:31.007Z,98.88
2019-05-09T20:22:59.738Z,98.80
2019-05-09T20:25:28.407Z,98.68
2019-05-09T20:27:57.067Z,97.44
2019-05-09T20:30:25.959Z,96.73
2019-05-09T20:32:54.718Z,96.69
2019-05-09T20:35:23.372Z,96.75
2019-05-09T20:37:52.250Z,96.67
2019-05-09T20:40:21.074Z,96.77
2019-05-09T20:42:49.933Z,97.04
2019-05-09T20:45:18.774Z,96.06
2019-05-09T20:47:47.616Z,96.36
2019-05-09T20:50:16.448Z,96.64
2019-05-09T20:52:45.295Z,96.19
2019-05-09T20:55:14.109Z,96.83
2019-05-09T20:57:43.000Z,96.91
2019-05-09T21:00:11.863Z,97.56
2019-05-09T21:02:40.674Z,97.49
2019-05-09T21:05:09.538Z,97.48
2019-05-09T21:07:38.318Z,96.88
2019-05-09T21:13:02.156Z,97.96
2019-05-09T21:15:31.083Z,98.12
2019-05-09T21:17:59.876Z,97.75
2019-05-09T21:20:28.718Z,97.95
2019-05-09T21:22:57.478Z,98.13
2019-05-09T21:25:26.297Z,98.05
2019-05-09T21:27:55.091Z,98.06
2019-05-09T21:30:24.018Z,98.31
2019-05-09T21:32:52.869Z,98.77
2019-05-09T21:35:21.542Z,98.85
2019-05-09T21:37:50.168Z,99.63
2019-05-09T21:43:13.213Z,99.89
2019-05-09T21:45:41.875Z,100.00
2019-05-09T21:48:10.519Z,100.00
2019-05-09T21:50:39.233Z,100.00
2019-05-09T21:53:07.875Z,100.00
2019-05-09T21:55:36.499Z,100.00
2019-05-09T21:58:05.157Z,100.00
2019-05-09T22:03:31.706Z,100.00
2019-05-09T22:06:00.395Z,100.00
2019-05-09T22:08:29.137Z,100.00
2019-05-09T22:10:57.815Z,100.00
2019-05-09T22:13:26.421Z,100.00
2019-05-09T22:15:55.068Z,100.00
2019-05-09T22:18:23.710Z,100.00
2019-05-09T22:20:52.385Z,100.00
2019-05-09T22:23:55.209Z,100.00
2019-05-09T22:26:10.564Z,100.00
2019-05-09T22:28:39.249Z,100.00
2019-05-09T22:31:07.821Z,100.00
2019-05-09T22:33:36.514Z,100.00
2019-05-09T22:36:05.148Z,100.00
2019-05-09T22:38:33.764Z,100.00
2019-05-09T22:41:02.433Z,100.00
2019-05-09T22:43:31.087Z,100.00
2019-05-09T22:45:59.657Z,100.00
2019-05-09T22:48:28.357Z,100.00
2019-05-09T22:50:56.999Z,100.00
2019-05-09T22:53:25.617Z,100.00
2019-05-09T22:55:54.163Z,100.00
2019-05-09T22:58:22.740Z,100.00
2019-05-09T23:00:51.418Z,100.00
2019-05-09T23:03:20.111Z,100.00
2019-05-09T23:05:48.757Z,100.00
2019-05-09T23:08:17.379Z,100.00
2019-05-09T23:10:46.065Z,100.00
2019-05-09T23:13:14.614Z,100.00
2019-05-09T23:15:43.337Z,100.00
2019-05-09T23:18:12.043Z,100.00
2019-05-09T23:20:59.810Z,100.00
2019-05-09T23:23:47.609Z,100.00
2019-05-09T23:28:51.682Z,100.00
2019-05-09T23:34:09.503Z,100.00
2019-05-09T23:36:38.063Z,100.00
2019-05-09T23:39:46.529Z,100.00
2019-05-09T23:42:15.209Z,100.00
2019-05-09T23:44:43.794Z,100.00
2019-05-09T23:47:12.388Z,100.00
2019-05-09T23:49:41.081Z,100.00
2019-05-09T23:52:09.717Z,100.00
2019-05-09T23:54:57.522Z,100.00
2019-05-09T23:57:45.339Z,100.00
